Runway excursion Incident Boeing 737-8AS (WL) VT-SYI, 02 Jul 2019
ASN logo
ASN Wikibase Occurrence # 226763
 
This information is added by users of ASN. Neither ASN nor the Flight Safety Foundation are responsible for the completeness or correctness of this information. If you feel this information is incomplete or incorrect, you can submit corrected information.

Date:02-JUL-2019
Time:09:03 UTC
Type:Silhouette image of generic B738 model; specific model in this crash may look slightly different    
Boeing 737-8AS (WL)
Owner/operator:SpiceJet
Registration: VT-SYI
MSN: 33555/1426
Fatalities:Fatalities: 0 / Occupants:
Other fatalities:0
Aircraft damage: None
Location:Kolkata-Netaji Subhas Chandra Bose International Airport (CCU/VECC) -   India
Phase: Landing
Nature:Passenger - Scheduled
Departure airport:Pune-Lohegaon Airport (PNQ/VAPO)
Destination airport:Kolkata-Netaji Subhas Chandra Bose International Airport (CCU/VECC)
Confidence Rating: Information is only available from news, social media or unofficial sources
Narrative:
SpiceJet flight SG275 temporarily veered off the right side of runway 19L on landing at Kolkata. Four runway edge lights were damaged.
The aircraft was able to continue with a delay of about 1 hour and 15 minutes.

Weather about the time of the incident (0903Z):
VECC 020930Z 11007KT 3000 -RA SCT018 FEW030CB BKN100 27/26 Q0996 TEMPO 2000 RA
VECC 020900Z 13012KT 3000 RA SCT015 FEW030CB BKN100 31/29 Q0995 TEMPO 2000 RA

Sources:

https://economictimes.indiatimes.com/industry/transportation/airlines-/-aviation/spicejet-flight-skids-off-during-landing-at-kolkata-airport-passengers-safe/articleshow/70045021.cms

Other occurrences involving this aircraft

22 Aug 2010 EI-DAV Ryanair 0 Cagliari min
Bird strike.


Revision history:

Date/timeContributorUpdates
03-Jul-2019 07:03 harro Added
03-Jul-2019 07:06 harro Updated [Time, Location, Narrative]

Corrections or additions? ... Edit this accident description

The Aviation Safety Network is an exclusive service provided by:
Quick Links:

CONNECT WITH US: FSF Facebook FSF Twitter FSF Youtube FSF LinkedIn FSF Instagram

©2023 Flight Safety Foundation

701 N. Fairfax St., Ste. 250
Alexandria, Virginia 22314
www.FlightSafety.org